sensor_id;sensor_type;location;lat;lon;timestamp;temperature;humidity
19966;DHT22;10144;50.874;4.762;2022-12-07T07:58:03;4.90;99.90
19966;DHT22;10144;50.874;4.762;2022-12-07T10:22:13;12.10;99.90
19966;DHT22;10144;50.874;4.762;2022-12-07T10:24:47;12.70;99.90
19966;DHT22;10144;50.874;4.762;2022-12-07T10:27:26;13.00;99.90
19966;DHT22;10144;50.874;4.762;2022-12-07T10:29:53;13.20;99.90
19966;DHT22;10144;50.874;4.762;2022-12-07T10:34:44;13.00;99.90
19966;DHT22;10144;50.874;4.762;2022-12-07T10:44:43;12.50;99.90
19966;DHT22;10144;50.874;4.762;2022-12-07T10:50:02;13.80;99.90
19966;DHT22;10144;50.874;4.762;2022-12-07T10:52:40;15.40;99.90
19966;DHT22;10144;50.874;4.762;2022-12-07T10:55:33;17.80;99.90
19966;DHT22;10144;50.874;4.762;2022-12-07T11:01:25;16.50;99.90
19966;DHT22;10144;50.874;4.762;2022-12-07T11:04:40;15.40;99.90
19966;DHT22;10144;50.874;4.762;2022-12-07T11:06:54;14.60;99.90
19966;DHT22;10144;50.874;4.762;2022-12-07T11:18:02;11.60;99.90
19966;DHT22;10144;50.874;4.762;2022-12-07T11:34:49;10.90;99.90
19966;DHT22;10144;50.874;4.762;2022-12-07T11:40:40;10.70;99.90
19966;DHT22;10144;50.874;4.762;2022-12-07T11:47:06;11.90;99.90
19966;DHT22;10144;50.874;4.762;2022-12-07T12:23:28;16.40;99.90
19966;DHT22;10144;50.874;4.762;2022-12-07T12:29:51;14.30;99.90
19966;DHT22;10144;50.874;4.762;2022-12-07T13:25:36;16.40;99.90
19966;DHT22;10144;50.874;4.762;2022-12-07T13:31:46;14.30;99.90
19966;DHT22;10144;50.874;4.762;2022-12-07T13:37:44;12.60;99.90
19966;DHT22;10144;50.874;4.762;2022-12-07T13:49:54;11.00;99.90
19966;DHT22;10144;50.874;4.762;2022-12-07T13:52:30;10.50;99.90
19966;DHT22;10144;50.874;4.762;2022-12-07T13:55:11;10.40;99.90
19966;DHT22;10144;50.874;4.762;2022-12-07T13:57:39;10.10;99.90
19966;DHT22;10144;50.874;4.762;2022-12-07T14:00:15;9.90;99.90
19966;DHT22;10144;50.874;4.762;2022-12-07T14:03:04;9.80;99.90
19966;DHT22;10144;50.874;4.762;2022-12-07T14:05:34;9.40;99.90
19966;DHT22;10144;50.874;4.762;2022-12-07T14:08:03;9.20;99.90
19966;DHT22;10144;50.874;4.762;2022-12-07T14:10:33;9.10;99.90
19966;DHT22;10144;50.874;4.762;2022-12-07T14:13:01;9.10;99.90
19966;DHT22;10144;50.874;4.762;2022-12-07T14:15:29;9.00;99.90
19966;DHT22;10144;50.874;4.762;2022-12-07T14:17:56;8.70;99.90
19966;DHT22;10144;50.874;4.762;2022-12-07T14:20:34;8.60;99.90
19966;DHT22;10144;50.874;4.762;2022-12-07T14:23:00;8.40;99.90
19966;DHT22;10144;50.874;4.762;2022-12-07T14:26:04;8.40;99.90
19966;DHT22;10144;50.874;4.762;2022-12-07T14:28:35;8.60;99.90
19966;DHT22;10144;50.874;4.762;2022-12-07T14:31:02;8.50;99.90
19966;DHT22;10144;50.874;4.762;2022-12-07T14:33:28;8.30;99.90
19966;DHT22;10144;50.874;4.762;2022-12-07T14:35:54;8.20;99.90
19966;DHT22;10144;50.874;4.762;2022-12-07T14:38:25;8.10;99.90
19966;DHT22;10144;50.874;4.762;2022-12-07T14:40:52;8.00;99.90
19966;DHT22;10144;50.874;4.762;2022-12-07T14:43:18;7.90;99.90
19966;DHT22;10144;50.874;4.762;2022-12-07T14:45:45;7.80;99.90
19966;DHT22;10144;50.874;4.762;2022-12-07T14:48:12;7.70;99.90
19966;DHT22;10144;50.874;4.762;2022-12-07T14:50:42;7.70;99.90
19966;DHT22;10144;50.874;4.762;2022-12-07T14:53:15;7.70;99.90
19966;DHT22;10144;50.874;4.762;2022-12-07T14:55:41;7.30;99.90
19966;DHT22;10144;50.874;4.762;2022-12-07T14:58:14;6.80;99.90
19966;DHT22;10144;50.874;4.762;2022-12-07T15:00:41;6.70;99.90
19966;DHT22;10144;50.874;4.762;2022-12-07T15:03:06;6.70;99.90
19966;DHT22;10144;50.874;4.762;2022-12-07T15:05:33;6.60;99.90
19966;DHT22;10144;50.874;4.762;2022-12-07T15:07:59;6.70;99.90
19966;DHT22;10144;50.874;4.762;2022-12-07T15:10:27;6.60;99.90
19966;DHT22;10144;50.874;4.762;2022-12-07T15:13:01;6.60;99.90
19966;DHT22;10144;50.874;4.762;2022-12-07T15:15:47;6.60;99.90
19966;DHT22;10144;50.874;4.762;2022-12-07T15:18:12;6.70;99.90
19966;DHT22;10144;50.874;4.762;2022-12-07T15:20:38;6.70;99.90
19966;DHT22;10144;50.874;4.762;2022-12-07T15:23:04;6.70;99.90
19966;DHT22;10144;50.874;4.762;2022-12-07T15:25:31;6.60;99.90
19966;DHT22;10144;50.874;4.762;2022-12-07T15:27:59;6.60;99.90
19966;DHT22;10144;50.874;4.762;2022-12-07T15:30:26;6.60;99.90
19966;DHT22;10144;50.874;4.762;2022-12-07T15:32:52;6.60;99.90
19966;DHT22;10144;50.874;4.762;2022-12-07T15:35:18;6.50;99.90
19966;DHT22;10144;50.874;4.762;2022-12-07T15:37:44;6.40;99.90
19966;DHT22;10144;50.874;4.762;2022-12-07T15:40:10;6.30;99.90
19966;DHT22;10144;50.874;4.762;2022-12-07T15:42:36;6.30;99.90
19966;DHT22;10144;50.874;4.762;2022-12-07T15:45:03;6.20;99.90
19966;DHT22;10144;50.874;4.762;2022-12-07T15:47:39;6.00;99.90
19966;DHT22;10144;50.874;4.762;2022-12-07T15:50:08;6.00;99.90
19966;DHT22;10144;50.874;4.762;2022-12-07T15:52:34;5.90;99.90
19966;DHT22;10144;50.874;4.762;2022-12-07T15:55:00;6.00;99.90
19966;DHT22;10144;50.874;4.762;2022-12-07T15:57:28;6.00;99.90
19966;DHT22;10144;50.874;4.762;2022-12-07T15:59:53;5.90;99.90
19966;DHT22;10144;50.874;4.762;2022-12-07T16:02:19;6.00;99.90
19966;DHT22;10144;50.874;4.762;2022-12-07T16:04:45;5.90;99.90
19966;DHT22;10144;50.874;4.762;2022-12-07T16:07:11;5.90;99.90
19966;DHT22;10144;50.874;4.762;2022-12-07T16:09:37;5.90;99.90
19966;DHT22;10144;50.874;4.762;2022-12-07T16:12:03;5.90;99.90
19966;DHT22;10144;50.874;4.762;2022-12-07T16:14:29;5.90;99.90
19966;DHT22;10144;50.874;4.762;2022-12-07T16:16:55;6.00;99.90
19966;DHT22;10144;50.874;4.762;2022-12-07T16:19:20;6.10;99.90
19966;DHT22;10144;50.874;4.762;2022-12-07T16:21:46;6.10;99.90
19966;DHT22;10144;50.874;4.762;2022-12-07T16:24:12;6.10;99.90
19966;DHT22;10144;50.874;4.762;2022-12-07T16:26:40;6.10;99.90
19966;DHT22;10144;50.874;4.762;2022-12-07T16:29:06;6.10;99.90
19966;DHT22;10144;50.874;4.762;2022-12-07T16:31:31;6.10;99.90
19966;DHT22;10144;50.874;4.762;2022-12-07T16:33:58;6.10;99.90
19966;DHT22;10144;50.874;4.762;2022-12-07T16:36:24;6.10;99.90
19966;DHT22;10144;50.874;4.762;2022-12-07T16:38:51;6.10;99.90
19966;DHT22;10144;50.874;4.762;2022-12-07T16:41:17;6.10;99.90
19966;DHT22;10144;50.874;4.762;2022-12-07T16:43:43;6.10;99.90
19966;DHT22;10144;50.874;4.762;2022-12-07T16:46:09;6.10;99.90
19966;DHT22;10144;50.874;4.762;2022-12-07T16:48:36;6.10;99.90
19966;DHT22;10144;50.874;4.762;2022-12-07T16:51:07;6.10;99.90
19966;DHT22;10144;50.874;4.762;2022-12-07T16:53:37;6.10;99.90
19966;DHT22;10144;50.874;4.762;2022-12-07T16:56:03;6.10;99.90
19966;DHT22;10144;50.874;4.762;2022-12-07T16:58:29;6.20;99.90
19966;DHT22;10144;50.874;4.762;2022-12-07T17:00:55;6.10;99.90
19966;DHT22;10144;50.874;4.762;2022-12-07T17:03:21;6.20;99.90
19966;DHT22;10144;50.874;4.762;2022-12-07T17:05:47;6.20;99.90
19966;DHT22;10144;50.874;4.762;2022-12-07T17:08:14;6.20;99.90
19966;DHT22;10144;50.874;4.762;2022-12-07T17:10:42;6.10;99.90
19966;DHT22;10144;50.874;4.762;2022-12-07T17:13:08;6.10;99.90
19966;DHT22;10144;50.874;4.762;2022-12-07T17:16:04;6.00;99.90
19966;DHT22;10144;50.874;4.762;2022-12-07T17:18:34;5.90;99.90
19966;DHT22;10144;50.874;4.762;2022-12-07T17:21:05;5.90;99.90
19966;DHT22;10144;50.874;4.762;2022-12-07T17:23:32;5.90;99.90
19966;DHT22;10144;50.874;4.762;2022-12-07T17:26:08;5.90;99.90
19966;DHT22;10144;50.874;4.762;2022-12-07T17:28:34;6.30;99.90
19966;DHT22;10144;50.874;4.762;2022-12-07T17:31:01;6.40;99.90
19966;DHT22;10144;50.874;4.762;2022-12-07T17:33:30;6.40;99.90
19966;DHT22;10144;50.874;4.762;2022-12-07T17:35:56;6.50;99.90
19966;DHT22;10144;50.874;4.762;2022-12-07T17:38:22;6.40;99.90
19966;DHT22;10144;50.874;4.762;2022-12-07T17:40:47;6.30;99.90
19966;DHT22;10144;50.874;4.762;2022-12-07T17:43:14;6.30;99.90
19966;DHT22;10144;50.874;4.762;2022-12-07T17:45:40;6.30;99.90
19966;DHT22;10144;50.874;4.762;2022-12-07T17:48:05;6.30;99.90
19966;DHT22;10144;50.874;4.762;2022-12-07T17:50:31;6.40;99.90
19966;DHT22;10144;50.874;4.762;2022-12-07T17:53:15;6.40;99.90
19966;DHT22;10144;50.874;4.762;2022-12-07T17:55:41;6.30;99.90
19966;DHT22;10144;50.874;4.762;2022-12-07T17:58:06;6.30;99.90
19966;DHT22;10144;50.874;4.762;2022-12-07T18:00:33;6.30;99.90
19966;DHT22;10144;50.874;4.762;2022-12-07T18:03:05;6.30;99.90
19966;DHT22;10144;50.874;4.762;2022-12-07T18:05:32;6.30;99.90
19966;DHT22;10144;50.874;4.762;2022-12-07T18:07:58;6.40;99.90
19966;DHT22;10144;50.874;4.762;2022-12-07T18:10:23;6.30;99.90
19966;DHT22;10144;50.874;4.762;2022-12-07T18:12:49;6.30;99.90
19966;DHT22;10144;50.874;4.762;2022-12-07T18:15:14;6.40;99.90
19966;DHT22;10144;50.874;4.762;2022-12-07T18:17:40;6.30;99.90
19966;DHT22;10144;50.874;4.762;2022-12-07T18:20:07;6.30;99.90
19966;DHT22;10144;50.874;4.762;2022-12-07T18:22:33;6.30;99.90
19966;DHT22;10144;50.874;4.762;2022-12-07T18:24:59;6.10;99.90
19966;DHT22;10144;50.874;4.762;2022-12-07T18:27:27;6.10;99.90
19966;DHT22;10144;50.874;4.762;2022-12-07T18:29:53;6.10;99.90
19966;DHT22;10144;50.874;4.762;2022-12-07T18:32:20;6.10;99.90
19966;DHT22;10144;50.874;4.762;2022-12-07T18:34:45;6.00;99.90
19966;DHT22;10144;50.874;4.762;2022-12-07T18:37:11;6.00;99.90
19966;DHT22;10144;50.874;4.762;2022-12-07T18:39:36;6.00;99.90
19966;DHT22;10144;50.874;4.762;2022-12-07T18:42:02;6.10;99.90
19966;DHT22;10144;50.874;4.762;2022-12-07T18:44:28;6.10;99.90
19966;DHT22;10144;50.874;4.762;2022-12-07T18:46:53;6.00;99.90
19966;DHT22;10144;50.874;4.762;2022-12-07T18:49:20;6.00;99.90
19966;DHT22;10144;50.874;4.762;2022-12-07T18:51:45;5.90;99.90
19966;DHT22;10144;50.874;4.762;2022-12-07T18:54:12;5.80;99.90
19966;DHT22;10144;50.874;4.762;2022-12-07T18:56:38;5.80;99.90
19966;DHT22;10144;50.874;4.762;2022-12-07T18:59:05;5.80;99.90
19966;DHT22;10144;50.874;4.762;2022-12-07T19:01:51;5.70;99.90
19966;DHT22;10144;50.874;4.762;2022-12-07T19:04:18;5.70;99.90
19966;DHT22;10144;50.874;4.762;2022-12-07T19:06:45;5.70;99.90
19966;DHT22;10144;50.874;4.762;2022-12-07T19:09:11;5.60;99.90
19966;DHT22;10144;50.874;4.762;2022-12-07T19:11:38;5.50;99.90
19966;DHT22;10144;50.874;4.762;2022-12-07T19:14:21;5.50;99.90
19966;DHT22;10144;50.874;4.762;2022-12-07T19:16:47;5.40;99.90
19966;DHT22;10144;50.874;4.762;2022-12-07T19:19:19;5.40;99.90
19966;DHT22;10144;50.874;4.762;2022-12-07T19:21:45;5.30;99.90
19966;DHT22;10144;50.874;4.762;2022-12-07T19:24:11;5.30;99.90
19966;DHT22;10144;50.874;4.762;2022-12-07T19:26:37;5.10;99.90
19966;DHT22;10144;50.874;4.762;2022-12-07T19:29:02;5.10;99.90
19966;DHT22;10144;50.874;4.762;2022-12-07T19:31:28;5.10;99.90
19966;DHT22;10144;50.874;4.762;2022-12-07T19:33:53;5.00;99.90
19966;DHT22;10144;50.874;4.762;2022-12-07T19:36:19;5.00;99.90
19966;DHT22;10144;50.874;4.762;2022-12-07T19:38:45;5.00;99.90
19966;DHT22;10144;50.874;4.762;2022-12-07T19:41:12;4.90;99.90
19966;DHT22;10144;50.874;4.762;2022-12-07T19:44:13;4.90;99.90
19966;DHT22;10144;50.874;4.762;2022-12-07T19:46:40;5.10;99.90
19966;DHT22;10144;50.874;4.762;2022-12-07T19:49:06;5.00;99.90
19966;DHT22;10144;50.874;4.762;2022-12-07T19:51:32;5.00;99.90
19966;DHT22;10144;50.874;4.762;2022-12-07T19:54:00;5.00;99.90
19966;DHT22;10144;50.874;4.762;2022-12-07T19:56:27;5.10;99.90
19966;DHT22;10144;50.874;4.762;2022-12-07T19:58:54;5.10;99.90
19966;DHT22;10144;50.874;4.762;2022-12-07T20:01:20;5.20;99.90
19966;DHT22;10144;50.874;4.762;2022-12-07T20:03:46;5.20;99.90
19966;DHT22;10144;50.874;4.762;2022-12-07T20:06:16;5.20;99.90
19966;DHT22;10144;50.874;4.762;2022-12-07T20:08:42;5.20;99.90
19966;DHT22;10144;50.874;4.762;2022-12-07T20:11:08;5.20;99.90
19966;DHT22;10144;50.874;4.762;2022-12-07T20:13:54;5.30;99.90
19966;DHT22;10144;50.874;4.762;2022-12-07T20:16:20;5.40;99.90
19966;DHT22;10144;50.874;4.762;2022-12-07T20:18:46;5.40;99.90
19966;DHT22;10144;50.874;4.762;2022-12-07T20:21:13;5.40;99.90
19966;DHT22;10144;50.874;4.762;2022-12-07T20:23:39;5.50;99.90
19966;DHT22;10144;50.874;4.762;2022-12-07T20:26:07;5.50;99.90
19966;DHT22;10144;50.874;4.762;2022-12-07T20:28:33;5.50;99.90
19966;DHT22;10144;50.874;4.762;2022-12-07T20:30:59;5.60;99.90
19966;DHT22;10144;50.874;4.762;2022-12-07T20:33:25;5.60;99.90
19966;DHT22;10144;50.874;4.762;2022-12-07T20:35:51;5.60;99.90
19966;DHT22;10144;50.874;4.762;2022-12-07T20:38:17;5.50;99.90
19966;DHT22;10144;50.874;4.762;2022-12-07T20:40:47;5.60;99.90
19966;DHT22;10144;50.874;4.762;2022-12-07T20:43:15;5.60;99.90
19966;DHT22;10144;50.874;4.762;2022-12-07T20:45:48;5.50;99.90
19966;DHT22;10144;50.874;4.762;2022-12-07T20:48:14;5.40;99.90
19966;DHT22;10144;50.874;4.762;2022-12-07T20:50:40;5.40;99.90
19966;DHT22;10144;50.874;4.762;2022-12-07T20:53:06;5.40;99.90
19966;DHT22;10144;50.874;4.762;2022-12-07T20:55:32;5.40;99.90
19966;DHT22;10144;50.874;4.762;2022-12-07T20:57:58;5.40;99.90
19966;DHT22;10144;50.874;4.762;2022-12-07T21:00:23;5.40;99.90
19966;DHT22;10144;50.874;4.762;2022-12-07T21:02:49;5.40;99.90
19966;DHT22;10144;50.874;4.762;2022-12-07T21:05:17;5.40;99.90
19966;DHT22;10144;50.874;4.762;2022-12-07T21:07:43;5.30;99.90
19966;DHT22;10144;50.874;4.762;2022-12-07T21:10:09;5.30;99.90
19966;DHT22;10144;50.874;4.762;2022-12-07T21:12:34;5.30;99.90
19966;DHT22;10144;50.874;4.762;2022-12-07T21:15:00;5.30;99.90
19966;DHT22;10144;50.874;4.762;2022-12-07T21:17:26;5.30;99.90
19966;DHT22;10144;50.874;4.762;2022-12-07T21:19:51;5.30;99.90
19966;DHT22;10144;50.874;4.762;2022-12-07T21:22:17;5.30;99.90
19966;DHT22;10144;50.874;4.762;2022-12-07T21:24:43;5.20;99.90
19966;DHT22;10144;50.874;4.762;2022-12-07T21:27:09;5.20;99.90
19966;DHT22;10144;50.874;4.762;2022-12-07T21:29:34;5.20;99.90
19966;DHT22;10144;50.874;4.762;2022-12-07T21:32:01;5.30;99.90
19966;DHT22;10144;50.874;4.762;2022-12-07T21:34:26;5.20;99.90
19966;DHT22;10144;50.874;4.762;2022-12-07T21:36:52;5.20;99.90
19966;DHT22;10144;50.874;4.762;2022-12-07T21:39:17;5.10;99.90
19966;DHT22;10144;50.874;4.762;2022-12-07T21:41:43;5.20;99.90
19966;DHT22;10144;50.874;4.762;2022-12-07T21:44:09;5.10;99.90
19966;DHT22;10144;50.874;4.762;2022-12-07T21:46:35;5.20;99.90
19966;DHT22;10144;50.874;4.762;2022-12-07T21:49:07;5.20;99.90
19966;DHT22;10144;50.874;4.762;2022-12-07T21:51:33;5.30;99.90
19966;DHT22;10144;50.874;4.762;2022-12-07T21:54:02;5.30;99.90
19966;DHT22;10144;50.874;4.762;2022-12-07T21:56:35;5.30;99.90
19966;DHT22;10144;50.874;4.762;2022-12-07T21:59:04;5.20;99.90
19966;DHT22;10144;50.874;4.762;2022-12-07T22:01:34;5.20;99.90
19966;DHT22;10144;50.874;4.762;2022-12-07T22:04:14;5.20;99.90
19966;DHT22;10144;50.874;4.762;2022-12-07T22:06:47;5.20;99.90
19966;DHT22;10144;50.874;4.762;2022-12-07T22:09:14;5.20;99.90
19966;DHT22;10144;50.874;4.762;2022-12-07T22:11:41;5.20;99.90
19966;DHT22;10144;50.874;4.762;2022-12-07T22:14:08;5.20;99.90
19966;DHT22;10144;50.874;4.762;2022-12-07T22:16:58;5.20;99.90
19966;DHT22;10144;50.874;4.762;2022-12-07T22:19:27;5.10;99.90
19966;DHT22;10144;50.874;4.762;2022-12-07T22:21:55;5.20;99.90
19966;DHT22;10144;50.874;4.762;2022-12-07T22:24:26;5.10;99.90
19966;DHT22;10144;50.874;4.762;2022-12-07T22:26:58;5.10;99.90
19966;DHT22;10144;50.874;4.762;2022-12-07T22:29:29;5.00;99.90
19966;DHT22;10144;50.874;4.762;2022-12-07T22:31:59;5.00;99.90
19966;DHT22;10144;50.874;4.762;2022-12-07T22:34:31;4.90;99.90
19966;DHT22;10144;50.874;4.762;2022-12-07T22:36:58;5.00;99.90
19966;DHT22;10144;50.874;4.762;2022-12-07T22:39:29;4.90;99.90
19966;DHT22;10144;50.874;4.762;2022-12-07T22:41:57;4.90;99.90
19966;DHT22;10144;50.874;4.762;2022-12-07T22:44:23;4.90;99.90
19966;DHT22;10144;50.874;4.762;2022-12-07T22:46:51;4.80;99.90
19966;DHT22;10144;50.874;4.762;2022-12-07T22:49:18;4.70;99.90
19966;DHT22;10144;50.874;4.762;2022-12-07T22:51:44;4.70;99.90
19966;DHT22;10144;50.874;4.762;2022-12-07T22:54:14;4.70;99.90
19966;DHT22;10144;50.874;4.762;2022-12-07T22:56:44;4.80;99.90
19966;DHT22;10144;50.874;4.762;2022-12-07T22:59:13;4.80;99.90
19966;DHT22;10144;50.874;4.762;2022-12-07T23:01:44;4.80;99.90
19966;DHT22;10144;50.874;4.762;2022-12-07T23:04:13;5.00;99.90
19966;DHT22;10144;50.874;4.762;2022-12-07T23:06:39;5.00;99.90
19966;DHT22;10144;50.874;4.762;2022-12-07T23:09:11;4.90;99.90
19966;DHT22;10144;50.874;4.762;2022-12-07T23:11:40;5.00;99.90
19966;DHT22;10144;50.874;4.762;2022-12-07T23:14:32;4.90;99.90
19966;DHT22;10144;50.874;4.762;2022-12-07T23:17:04;4.90;99.90
19966;DHT22;10144;50.874;4.762;2022-12-07T23:19:36;5.00;99.90
19966;DHT22;10144;50.874;4.762;2022-12-07T23:22:01;5.00;99.90
19966;DHT22;10144;50.874;4.762;2022-12-07T23:24:29;5.00;99.90
19966;DHT22;10144;50.874;4.762;2022-12-07T23:26:58;5.10;99.90
19966;DHT22;10144;50.874;4.762;2022-12-07T23:29:25;5.20;99.90
19966;DHT22;10144;50.874;4.762;2022-12-07T23:31:54;5.10;99.90
19966;DHT22;10144;50.874;4.762;2022-12-07T23:34:26;5.20;99.90
19966;DHT22;10144;50.874;4.762;2022-12-07T23:36:54;5.30;99.90
19966;DHT22;10144;50.874;4.762;2022-12-07T23:39:33;5.30;99.90
19966;DHT22;10144;50.874;4.762;2022-12-07T23:42:02;5.30;99.90
19966;DHT22;10144;50.874;4.762;2022-12-07T23:44:31;5.20;99.90
19966;DHT22;10144;50.874;4.762;2022-12-07T23:46:58;5.30;99.90
19966;DHT22;10144;50.874;4.762;2022-12-07T23:49:27;5.20;99.90
19966;DHT22;10144;50.874;4.762;2022-12-07T23:51:58;5.20;99.90
19966;DHT22;10144;50.874;4.762;2022-12-07T23:54:26;5.20;99.90
19966;DHT22;10144;50.874;4.762;2022-12-07T23:56:54;5.10;99.90
19966;DHT22;10144;50.874;4.762;2022-12-07T23:59:27;5.00;99.90
